North Tarrytown, New York
Current Conditions -  °F | °C
As of 6:56 AM on Wednesday 26 Nov 2014 (Local Time) from KHPN Reporting Station
Light Rain Light Rain  
Wind Chill: 36°   Ceiling: 7000
Heat Index: 41°   Visibility: 10mi
Dew Point: 30°   Wind: 8mph
Humidity: 65%   Direction: 20°NNE
Pressure: 30.14"   Gusts: NA
Location:  41.0851°N, 73.846°W
Report Text: KHPN 261156Z 02007KT 10SM -RA OVC070 05/M01 A3014 RMK AO2 SLP210 P0000 60000 T00501011 10083 20050 55008
Loading
Personal Weather Stations






























Interactive Weather Map New forecast layout! Learn more

10-Day Weather Forecast

Advertisements
Track Severe Weather on mobile